Accueil
METAR-TAF:

METAR-TAF

Aéroports :

Base aérienne de Szolnok

Szolnok, Hongrie

latitude: 47-07N, longitude: 020-14E, altitude: 89 m

Observation

Le bulletin a été fait il y a 32 minutes, à 16:45 UTC
Vent 8 kt de sud/sud-est
Température 10°C
Humidité 76%
Pression 1013 hPa
Visibilité 10 km ou plus
pas de nuages en-dessous de 1500 mètres et pas de cumulonimbus.

METAR: LHSN 051645Z 16008KT CAVOK 10/06 Q1013 NOSIG RMK BLU

Heure: 18:17 (17:17 UTC)

Prévision

Le bulletin a été fait il y a 3 heures et 2 minutes, à 14:15 UTC
Prévision valable du 05 à 15 UTC au 05 à 24 UTC
Vent 10 kt de sud/sud-est
Visibilité 10 km ou plus
pas de nuages en-dessous de 1500 mètres et pas de cumulonimbus.
Temporairement
du 05 à 17 UTC au 05 à 24 UTC
Vent 7 kt de est

TAF: LHSN 051415Z 0515/0524 15010KT CAVOK TEMPO 0517/0524 10007KT

Observations et prévisions météorologiques de plus de 4000 aéroports (messages METAR et TAF).

Les stations disponibles sont représentées par des disques jaunes et rouges sur la carte.

Passer la souris dessus pour voir le nom de la station.

Cliquer dessus pour voir les observations et prévisions météorologiques.

Pour changer de carte: cliquez sur les boutons verts avec une croix noire pour zoomer, sur le bouton vert avec un tiret pour effectuer un zoom arrière, ou sur les flèches vertes pour les cartes adjacentes.


METAR-TAF: